»·PEaware :: WAT169 KSNA-KLAS

WAT169 :: KSNA-KLAS

FLIGHT INFORMATION

Flight Status: Arrived
Operator: Unknown
More flights by this operator :: More flights under this callsign
Pilot: Marty P. (27464)
Aircraft: BOMBARDIER BD-100 CHALLENGER 300
(CL30)
More flights by this aircraft type
Origin: KSNA John Wayne-Orange Co
United States
Destination: KLAS McCarran Intl
United States
More flights between these airports :: More routes between these airports
Route: +FINZZ2 MISEN KEPEC6
File this flight plan on PilotEdge
Remarks:
Altitude:
(Current/Filed)
27,000ft
Speed:
(Current/Filed)
470kts
Departed: 25-Mar-20 10:27 PM
Arrived: 25-Mar-20 11:15 PM
Distance/Time
Traveled:
197nm/0:48
Distance/Time
To Go:
Arrived

Flight Plot

Page will automatically refresh every two minutes.

Flight plan parsing failed; only flown route is shown


Map Options




Map Legend


Flown Route
Filed Route
Departure Airport
Arrival Airport
Navaid (VOR, NDB)
Fix

Horizontal Profiles

Position Reports

Time Latitude Longitude Heading Altitude Ground
Speed
25-Mar-20 21:46 33.676059 -117.864319 118 62ft 0kts
25-Mar-20 21:47 33.676059 -117.864319 118 62ft 0kts
25-Mar-20 21:48 33.676059 -117.864319 118 62ft 0kts
25-Mar-20 21:49 33.676059 -117.864319 118 62ft 0kts
25-Mar-20 21:50 33.676059 -117.864319 118 62ft 0kts
25-Mar-20 21:51 33.676059 -117.864319 118 62ft 0kts
25-Mar-20 21:52 33.676059 -117.864319 118 62ft 0kts
25-Mar-20 21:53 33.676059 -117.864319 118 62ft 0kts
25-Mar-20 21:54 33.676059 -117.864319 118 62ft 0kts
25-Mar-20 21:55 33.676059 -117.864319 118 63ft 0kts
25-Mar-20 21:56 33.676059 -117.864319 118 63ft 0kts
25-Mar-20 21:57 33.676059 -117.864319 118 63ft 0kts
25-Mar-20 21:58 33.676059 -117.864319 118 63ft 0kts
25-Mar-20 21:59 33.676059 -117.864319 118 63ft 0kts
25-Mar-20 22:01 33.676059 -117.864319 118 63ft 0kts
25-Mar-20 22:02 33.676059 -117.864319 118 63ft 0kts
25-Mar-20 22:03 33.676059 -117.864319 118 63ft 0kts
25-Mar-20 22:04 33.676059 -117.864319 118 63ft 0kts
25-Mar-20 22:05 33.676059 -117.864319 118 63ft 0kts
25-Mar-20 22:06 33.676059 -117.864319 118 63ft 0kts
25-Mar-20 22:07 33.676059 -117.864319 118 63ft 0kts
25-Mar-20 22:08 33.676059 -117.864319 118 63ft 0kts
25-Mar-20 22:09 33.676059 -117.864319 118 63ft 0kts
25-Mar-20 22:10 33.676059 -117.864319 118 63ft 0kts
25-Mar-20 22:11 33.676059 -117.864319 118 63ft 0kts
25-Mar-20 22:12 33.676059 -117.864319 118 63ft 0kts
25-Mar-20 22:13 33.676059 -117.864319 118 63ft 0kts
25-Mar-20 22:14 33.676056 -117.864313 118 63ft 0kts
25-Mar-20 22:15 33.676255 -117.864756 118 63ft 2kts
25-Mar-20 22:16 33.676405 -117.865162 109 62ft 0kts
25-Mar-20 22:17 33.676451 -117.865019 31 62ft 0kts
25-Mar-20 22:17 33.676451 -117.865019 31 62ft 0kts
25-Mar-20 22:19 33.676451 -117.865019 31 62ft 0kts
25-Mar-20 22:20 33.676451 -117.865019 31 62ft 0kts
25-Mar-20 22:20 33.676451 -117.865019 31 62ft 0kts
25-Mar-20 22:21 33.676673 -117.864858 30 62ft 14kts
25-Mar-20 22:23 33.681156 -117.864216 297 63ft 0kts
25-Mar-20 22:23 33.681156 -117.864216 297 63ft 0kts
25-Mar-20 22:24 33.681188 -117.864285 299 62ft 0kts
25-Mar-20 22:26 33.681188 -117.864285 299 62ft 0kts
25-Mar-20 22:26 33.679756 -117.866271 208 62ft 48kts
25-Mar-20 22:27 33.640193 -117.885853 194 2629ft 195kts
25-Mar-20 22:28 33.587112 -117.896342 193 4977ft 202kts
25-Mar-20 22:29 33.542100 -117.933334 224 7696ft 193kts
25-Mar-20 22:30 33.497617 -117.983558 234 8022ft 241kts
25-Mar-20 22:31 33.522725 -118.054587 305 10994ft 273kts
25-Mar-20 22:32 33.589375 -118.120176 344 14181ft 362kts
25-Mar-20 22:33 33.691632 -118.070481 21 16945ft 435kts
25-Mar-20 22:34 33.802292 -118.005580 20 18005ft 451kts
25-Mar-20 22:35 33.915706 -117.935571 31 20510ft 491kts
25-Mar-20 22:36 34.028499 -117.833052 33 22549ft 523kts
25-Mar-20 22:37 34.132150 -117.713957 51 23057ft 519kts
25-Mar-20 22:38 34.222107 -117.580481 51 23062ft 507kts
25-Mar-20 22:39 34.310789 -117.448286 51 23567ft 510kts
25-Mar-20 22:40 34.398401 -117.317252 52 26327ft 509kts
25-Mar-20 22:41 34.490648 -117.178616 52 26998ft 556kts
25-Mar-20 22:42 34.593360 -117.026580 51 26998ft 604kts
25-Mar-20 22:43 34.700310 -116.870482 51 26995ft 584kts
25-Mar-20 22:44 34.804513 -116.717717 51 26998ft 585kts
25-Mar-20 22:45 34.922016 -116.579438 36 27005ft 575kts
25-Mar-20 22:46 35.042990 -116.461608 35 24814ft 541kts
25-Mar-20 22:47 35.145957 -116.348553 44 23954ft 474kts
25-Mar-20 22:48 35.232730 -116.240459 44 23555ft 424kts
25-Mar-20 22:49 35.323779 -116.126023 44 19923ft 463kts
25-Mar-20 22:50 35.411785 -116.015067 44 17602ft 440kts
25-Mar-20 22:51 35.494612 -115.910158 44 15393ft 411kts
25-Mar-20 22:52 35.572081 -115.811788 45 13030ft 385kts
25-Mar-20 22:53 35.646546 -115.716939 45 13001ft 386kts
25-Mar-20 22:54 35.719332 -115.623973 45 13032ft 364kts
25-Mar-20 22:55 35.805120 -115.574132 358 13039ft 350kts
25-Mar-20 22:56 35.906585 -115.567238 356 13032ft 378kts
25-Mar-20 22:57 35.990869 -115.498523 68 13025ft 400kts
25-Mar-20 22:58 36.028032 -115.373310 91 11107ft 351kts
25-Mar-20 22:59 36.022906 -115.263632 99 9122ft 300kts
25-Mar-20 23:00 36.016541 -115.172281 100 9014ft 242kts
25-Mar-20 23:01 36.010757 -115.087483 100 7990ft 236kts
25-Mar-20 23:02 36.005772 -115.004743 99 8002ft 245kts
25-Mar-20 23:03 36.000105 -114.910422 98 8007ft 301kts
25-Mar-20 23:04 35.994646 -114.799173 84 7454ft 360kts
25-Mar-20 23:05 36.072165 -114.721834 358 5427ft 337kts
25-Mar-20 23:06 36.084389 -114.787935 247 4030ft 210kts
25-Mar-20 23:07 36.072090 -114.845744 271 3428ft 132kts
25-Mar-20 23:08 36.073535 -114.891861 267 3448ft 140kts
25-Mar-20 23:09 36.073599 -114.943485 265 3447ft 159kts
25-Mar-20 23:10 36.073640 -115.000351 265 3438ft 164kts
25-Mar-20 23:11 36.073672 -115.053455 264 3352ft 138kts
25-Mar-20 23:12 36.073656 -115.102444 267 2605ft 145kts
25-Mar-20 23:13 36.073689 -115.146971 275 2188ft 60kts
25-Mar-20 23:14 36.075623 -115.151505 335 2188ft 0kts
25-Mar-20 23:15 36.075623 -115.151505 335 2188ft 0kts
25-Mar-20 23:16 36.076804 -115.152197 334 2188ft 18kts
25-Mar-20 23:17 36.080079 -115.148057 62 2187ft 21kts

Navigation Log

Ident Type
Flight plan parsing failed, navigation log unavailable